sensor_id;sensor_type;location;lat;lon;timestamp;P1;durP1;ratioP1;P2;durP2;ratioP2
79243;SDS011;68672;42.676;23.356;2023-08-06T00:00:27;5.97;;;2.63;;
79243;SDS011;68672;42.676;23.356;2023-08-06T00:02:53;7.00;;;2.50;;
79243;SDS011;68672;42.676;23.356;2023-08-06T00:05:18;3.45;;;2.53;;
79243;SDS011;68672;42.676;23.356;2023-08-06T00:07:46;3.95;;;2.58;;
79243;SDS011;68672;42.676;23.356;2023-08-06T00:10:15;4.32;;;2.80;;
79243;SDS011;68672;42.676;23.356;2023-08-06T00:12:40;5.25;;;3.10;;
79243;SDS011;68672;42.676;23.356;2023-08-06T00:15:06;4.78;;;3.00;;
79243;SDS011;68672;42.676;23.356;2023-08-06T00:17:33;7.47;;;3.25;;
79243;SDS011;68672;42.676;23.356;2023-08-06T00:19:59;4.53;;;2.55;;
79243;SDS011;68672;42.676;23.356;2023-08-06T00:22:30;3.25;;;2.22;;
79243;SDS011;68672;42.676;23.356;2023-08-06T00:24:56;4.22;;;2.78;;
79243;SDS011;68672;42.676;23.356;2023-08-06T00:27:22;4.70;;;3.05;;
79243;SDS011;68672;42.676;23.356;2023-08-06T00:29:48;4.47;;;2.60;;
79243;SDS011;68672;42.676;23.356;2023-08-06T00:32:13;5.97;;;3.67;;
79243;SDS011;68672;42.676;23.356;2023-08-06T00:34:42;3.40;;;2.33;;
79243;SDS011;68672;42.676;23.356;2023-08-06T00:37:10;4.88;;;2.38;;
79243;SDS011;68672;42.676;23.356;2023-08-06T00:39:35;6.78;;;2.75;;
79243;SDS011;68672;42.676;23.356;2023-08-06T00:42:01;3.67;;;2.40;;
79243;SDS011;68672;42.676;23.356;2023-08-06T00:44:27;4.90;;;2.58;;
79243;SDS011;68672;42.676;23.356;2023-08-06T00:46:52;5.95;;;2.50;;
79243;SDS011;68672;42.676;23.356;2023-08-06T00:49:20;4.85;;;2.60;;
79243;SDS011;68672;42.676;23.356;2023-08-06T00:51:46;4.63;;;2.88;;
79243;SDS011;68672;42.676;23.356;2023-08-06T00:54:12;4.05;;;2.50;;
79243;SDS011;68672;42.676;23.356;2023-08-06T00:56:39;4.80;;;2.40;;
79243;SDS011;68672;42.676;23.356;2023-08-06T00:59:07;4.55;;;2.95;;
79243;SDS011;68672;42.676;23.356;2023-08-06T01:01:36;3.88;;;2.53;;
79243;SDS011;68672;42.676;23.356;2023-08-06T01:04:02;4.78;;;2.53;;
79243;SDS011;68672;42.676;23.356;2023-08-06T01:15:19;4.53;;;2.78;;
79243;SDS011;68672;42.676;23.356;2023-08-06T01:17:48;6.07;;;3.45;;
79243;SDS011;68672;42.676;23.356;2023-08-06T01:20:14;6.78;;;4.32;;
79243;SDS011;68672;42.676;23.356;2023-08-06T01:22:45;5.53;;;3.20;;
79243;SDS011;68672;42.676;23.356;2023-08-06T01:25:16;6.93;;;3.97;;
79243;SDS011;68672;42.676;23.356;2023-08-06T01:27:46;5.72;;;4.05;;
79243;SDS011;68672;42.676;23.356;2023-08-06T01:30:20;4.07;;;3.17;;
79243;SDS011;68672;42.676;23.356;2023-08-06T01:32:58;4.90;;;2.83;;
79243;SDS011;68672;42.676;23.356;2023-08-06T01:35:25;5.60;;;3.67;;
79243;SDS011;68672;42.676;23.356;2023-08-06T01:37:52;5.70;;;3.30;;
79243;SDS011;68672;42.676;23.356;2023-08-06T01:40:19;4.20;;;2.80;;
79243;SDS011;68672;42.676;23.356;2023-08-06T01:42:44;5.47;;;3.30;;
79243;SDS011;68672;42.676;23.356;2023-08-06T01:45:10;4.95;;;3.05;;
79243;SDS011;68672;42.676;23.356;2023-08-06T01:47:35;4.38;;;2.70;;
79243;SDS011;68672;42.676;23.356;2023-08-06T01:50:01;4.68;;;3.33;;
79243;SDS011;68672;42.676;23.356;2023-08-06T01:52:27;4.97;;;3.00;;
79243;SDS011;68672;42.676;23.356;2023-08-06T01:54:53;4.80;;;3.17;;
79243;SDS011;68672;42.676;23.356;2023-08-06T01:57:18;4.50;;;2.75;;
79243;SDS011;68672;42.676;23.356;2023-08-06T01:59:44;4.20;;;2.80;;
79243;SDS011;68672;42.676;23.356;2023-08-06T02:02:09;4.78;;;3.03;;
79243;SDS011;68672;42.676;23.356;2023-08-06T02:04:37;5.28;;;3.30;;
79243;SDS011;68672;42.676;23.356;2023-08-06T02:07:02;4.90;;;2.85;;
79243;SDS011;68672;42.676;23.356;2023-08-06T02:09:28;6.57;;;3.65;;
79243;SDS011;68672;42.676;23.356;2023-08-06T02:11:53;7.50;;;4.53;;
79243;SDS011;68672;42.676;23.356;2023-08-06T02:14:19;7.15;;;4.53;;
79243;SDS011;68672;42.676;23.356;2023-08-06T02:16:44;6.88;;;4.22;;
79243;SDS011;68672;42.676;23.356;2023-08-06T02:19:09;6.85;;;4.65;;
79243;SDS011;68672;42.676;23.356;2023-08-06T02:21:38;8.38;;;4.50;;
79243;SDS011;68672;42.676;23.356;2023-08-06T02:24:03;5.55;;;3.40;;
79243;SDS011;68672;42.676;23.356;2023-08-06T02:26:29;5.00;;;3.22;;
79243;SDS011;68672;42.676;23.356;2023-08-06T02:28:54;5.03;;;3.42;;
79243;SDS011;68672;42.676;23.356;2023-08-06T02:31:19;6.03;;;3.50;;
79243;SDS011;68672;42.676;23.356;2023-08-06T02:33:45;3.63;;;2.42;;
79243;SDS011;68672;42.676;23.356;2023-08-06T02:36:10;3.92;;;3.10;;
79243;SDS011;68672;42.676;23.356;2023-08-06T02:38:36;6.10;;;3.63;;
79243;SDS011;68672;42.676;23.356;2023-08-06T02:41:02;5.10;;;3.17;;
79243;SDS011;68672;42.676;23.356;2023-08-06T02:43:30;3.92;;;3.13;;
79243;SDS011;68672;42.676;23.356;2023-08-06T02:45:57;4.00;;;3.17;;
79243;SDS011;68672;42.676;23.356;2023-08-06T02:48:23;6.75;;;2.85;;
79243;SDS011;68672;42.676;23.356;2023-08-06T02:50:51;5.47;;;2.30;;
79243;SDS011;68672;42.676;23.356;2023-08-06T02:53:16;4.03;;;2.25;;
79243;SDS011;68672;42.676;23.356;2023-08-06T02:55:45;4.10;;;2.78;;
79243;SDS011;68672;42.676;23.356;2023-08-06T02:58:15;3.92;;;2.55;;
79243;SDS011;68672;42.676;23.356;2023-08-06T03:00:41;4.57;;;2.60;;
79243;SDS011;68672;42.676;23.356;2023-08-06T03:03:07;3.88;;;2.55;;
79243;SDS011;68672;42.676;23.356;2023-08-06T03:05:32;4.95;;;3.17;;
79243;SDS011;68672;42.676;23.356;2023-08-06T03:07:58;5.75;;;2.92;;
79243;SDS011;68672;42.676;23.356;2023-08-06T03:10:26;6.80;;;3.00;;
79243;SDS011;68672;42.676;23.356;2023-08-06T03:12:51;4.20;;;2.80;;
79243;SDS011;68672;42.676;23.356;2023-08-06T03:15:17;4.72;;;2.75;;
79243;SDS011;68672;42.676;23.356;2023-08-06T03:17:42;4.30;;;2.90;;
79243;SDS011;68672;42.676;23.356;2023-08-06T03:20:09;5.30;;;3.63;;
79243;SDS011;68672;42.676;23.356;2023-08-06T03:22:37;6.22;;;3.30;;
79243;SDS011;68672;42.676;23.356;2023-08-06T03:25:02;4.10;;;3.05;;
79243;SDS011;68672;42.676;23.356;2023-08-06T03:27:28;4.70;;;3.20;;
79243;SDS011;68672;42.676;23.356;2023-08-06T03:29:54;4.95;;;3.28;;
79243;SDS011;68672;42.676;23.356;2023-08-06T03:32:19;3.97;;;2.85;;
79243;SDS011;68672;42.676;23.356;2023-08-06T03:34:45;4.68;;;2.75;;
79243;SDS011;68672;42.676;23.356;2023-08-06T03:37:10;6.93;;;3.60;;
79243;SDS011;68672;42.676;23.356;2023-08-06T03:39:36;4.65;;;3.00;;
79243;SDS011;68672;42.676;23.356;2023-08-06T03:42:02;5.38;;;2.92;;
79243;SDS011;68672;42.676;23.356;2023-08-06T03:44:27;6.82;;;3.00;;
79243;SDS011;68672;42.676;23.356;2023-08-06T03:46:56;5.13;;;3.38;;
79243;SDS011;68672;42.676;23.356;2023-08-06T03:49:21;7.03;;;3.35;;
79243;SDS011;68672;42.676;23.356;2023-08-06T03:51:49;4.75;;;3.20;;
79243;SDS011;68672;42.676;23.356;2023-08-06T03:54:17;5.45;;;3.38;;
79243;SDS011;68672;42.676;23.356;2023-08-06T03:56:43;4.70;;;3.00;;
79243;SDS011;68672;42.676;23.356;2023-08-06T03:59:08;6.45;;;3.13;;
79243;SDS011;68672;42.676;23.356;2023-08-06T04:01:34;3.88;;;2.42;;
79243;SDS011;68672;42.676;23.356;2023-08-06T04:03:59;5.47;;;3.17;;
79243;SDS011;68672;42.676;23.356;2023-08-06T04:06:27;3.83;;;2.50;;
79243;SDS011;68672;42.676;23.356;2023-08-06T04:08:53;4.80;;;2.80;;
79243;SDS011;68672;42.676;23.356;2023-08-06T04:11:18;5.25;;;2.50;;
79243;SDS011;68672;42.676;23.356;2023-08-06T04:13:43;4.85;;;3.03;;
79243;SDS011;68672;42.676;23.356;2023-08-06T04:16:09;4.40;;;2.78;;
79243;SDS011;68672;42.676;23.356;2023-08-06T04:18:39;4.85;;;2.83;;
79243;SDS011;68672;42.676;23.356;2023-08-06T04:21:05;4.90;;;2.72;;
79243;SDS011;68672;42.676;23.356;2023-08-06T04:23:30;4.10;;;2.90;;
79243;SDS011;68672;42.676;23.356;2023-08-06T04:25:56;4.95;;;3.10;;
79243;SDS011;68672;42.676;23.356;2023-08-06T04:28:22;4.32;;;3.08;;
79243;SDS011;68672;42.676;23.356;2023-08-06T04:30:50;4.60;;;3.28;;
79243;SDS011;68672;42.676;23.356;2023-08-06T04:33:19;4.00;;;3.10;;
79243;SDS011;68672;42.676;23.356;2023-08-06T04:35:45;4.85;;;3.35;;
79243;SDS011;68672;42.676;23.356;2023-08-06T04:38:10;4.60;;;2.85;;
79243;SDS011;68672;42.676;23.356;2023-08-06T04:40:36;4.30;;;3.00;;
79243;SDS011;68672;42.676;23.356;2023-08-06T04:43:02;4.22;;;2.47;;
79243;SDS011;68672;42.676;23.356;2023-08-06T04:45:27;5.10;;;3.10;;
79243;SDS011;68672;42.676;23.356;2023-08-06T04:47:55;5.78;;;3.10;;
79243;SDS011;68672;42.676;23.356;2023-08-06T04:50:20;3.80;;;3.00;;
79243;SDS011;68672;42.676;23.356;2023-08-06T04:52:46;3.30;;;2.42;;
79243;SDS011;68672;42.676;23.356;2023-08-06T04:55:11;4.00;;;2.42;;
79243;SDS011;68672;42.676;23.356;2023-08-06T04:57:36;4.18;;;2.65;;
79243;SDS011;68672;42.676;23.356;2023-08-06T05:00:02;4.68;;;2.85;;
79243;SDS011;68672;42.676;23.356;2023-08-06T05:02:29;4.50;;;2.90;;
79243;SDS011;68672;42.676;23.356;2023-08-06T05:04:57;5.32;;;2.47;;
79243;SDS011;68672;42.676;23.356;2023-08-06T05:07:25;7.47;;;2.80;;
79243;SDS011;68672;42.676;23.356;2023-08-06T05:09:51;4.15;;;2.70;;
79243;SDS011;68672;42.676;23.356;2023-08-06T05:12:16;4.45;;;3.25;;
79243;SDS011;68672;42.676;23.356;2023-08-06T05:15:00;5.60;;;3.67;;
79243;SDS011;68672;42.676;23.356;2023-08-06T05:17:25;3.75;;;2.58;;
79243;SDS011;68672;42.676;23.356;2023-08-06T05:19:50;3.60;;;2.53;;
79243;SDS011;68672;42.676;23.356;2023-08-06T05:22:22;4.30;;;2.78;;
79243;SDS011;68672;42.676;23.356;2023-08-06T05:24:47;5.70;;;3.05;;
79243;SDS011;68672;42.676;23.356;2023-08-06T05:27:13;4.30;;;3.03;;
79243;SDS011;68672;42.676;23.356;2023-08-06T05:29:38;3.88;;;2.60;;
79243;SDS011;68672;42.676;23.356;2023-08-06T05:32:04;4.68;;;2.50;;
79243;SDS011;68672;42.676;23.356;2023-08-06T05:34:29;4.00;;;2.83;;
79243;SDS011;68672;42.676;23.356;2023-08-06T05:37:04;5.35;;;3.83;;
79243;SDS011;68672;42.676;23.356;2023-08-06T05:39:30;7.53;;;3.65;;
79243;SDS011;68672;42.676;23.356;2023-08-06T05:41:55;5.22;;;3.55;;
79243;SDS011;68672;42.676;23.356;2023-08-06T05:44:21;6.18;;;4.03;;
79243;SDS011;68672;42.676;23.356;2023-08-06T05:46:47;6.80;;;4.40;;
79243;SDS011;68672;42.676;23.356;2023-08-06T05:49:12;7.68;;;4.50;;
79243;SDS011;68672;42.676;23.356;2023-08-06T05:51:39;8.25;;;4.90;;
79243;SDS011;68672;42.676;23.356;2023-08-06T05:54:04;10.65;;;5.30;;
79243;SDS011;68672;42.676;23.356;2023-08-06T05:56:30;8.30;;;4.20;;
79243;SDS011;68672;42.676;23.356;2023-08-06T05:58:55;6.07;;;4.38;;
79243;SDS011;68672;42.676;23.356;2023-08-06T06:01:20;6.00;;;3.85;;
79243;SDS011;68672;42.676;23.356;2023-08-06T06:03:49;3.92;;;3.03;;
79243;SDS011;68672;42.676;23.356;2023-08-06T06:06:14;4.78;;;3.53;;
79243;SDS011;68672;42.676;23.356;2023-08-06T06:08:41;6.15;;;2.72;;
79243;SDS011;68672;42.676;23.356;2023-08-06T06:11:06;3.70;;;2.35;;
79243;SDS011;68672;42.676;23.356;2023-08-06T06:13:31;3.78;;;2.60;;
79243;SDS011;68672;42.676;23.356;2023-08-06T06:15:57;2.97;;;2.42;;
79243;SDS011;68672;42.676;23.356;2023-08-06T06:18:22;2.90;;;2.15;;
79243;SDS011;68672;42.676;23.356;2023-08-06T06:20:48;3.53;;;2.05;;
79243;SDS011;68672;42.676;23.356;2023-08-06T06:23:13;3.28;;;2.50;;
79243;SDS011;68672;42.676;23.356;2023-08-06T06:25:48;4.65;;;2.20;;
79243;SDS011;68672;42.676;23.356;2023-08-06T06:28:14;3.35;;;2.40;;
79243;SDS011;68672;42.676;23.356;2023-08-06T06:30:41;2.92;;;2.03;;
79243;SDS011;68672;42.676;23.356;2023-08-06T06:33:07;3.17;;;2.25;;
79243;SDS011;68672;42.676;23.356;2023-08-06T06:35:32;3.40;;;2.55;;
79243;SDS011;68672;42.676;23.356;2023-08-06T06:38:00;4.03;;;2.10;;
79243;SDS011;68672;42.676;23.356;2023-08-06T06:40:29;2.95;;;2.33;;
79243;SDS011;68672;42.676;23.356;2023-08-06T06:42:54;2.47;;;1.90;;
79243;SDS011;68672;42.676;23.356;2023-08-06T06:45:20;2.85;;;1.90;;
79243;SDS011;68672;42.676;23.356;2023-08-06T06:47:45;2.47;;;2.10;;
79243;SDS011;68672;42.676;23.356;2023-08-06T06:50:10;3.35;;;1.70;;
79243;SDS011;68672;42.676;23.356;2023-08-06T06:52:36;2.70;;;2.17;;
79243;SDS011;68672;42.676;23.356;2023-08-06T06:55:02;2.65;;;1.98;;
79243;SDS011;68672;42.676;23.356;2023-08-06T06:57:29;2.42;;;2.03;;
79243;SDS011;68672;42.676;23.356;2023-08-06T06:59:57;2.88;;;1.92;;
79243;SDS011;68672;42.676;23.356;2023-08-06T07:02:23;3.45;;;2.30;;
79243;SDS011;68672;42.676;23.356;2023-08-06T07:04:49;4.15;;;2.05;;
79243;SDS011;68672;42.676;23.356;2023-08-06T07:07:15;3.22;;;2.00;;
79243;SDS011;68672;42.676;23.356;2023-08-06T07:09:40;2.45;;;2.17;;
79243;SDS011;68672;42.676;23.356;2023-08-06T07:12:06;3.60;;;2.30;;
79243;SDS011;68672;42.676;23.356;2023-08-06T07:14:32;3.70;;;2.35;;
79243;SDS011;68672;42.676;23.356;2023-08-06T07:16:57;4.07;;;2.38;;
79243;SDS011;68672;42.676;23.356;2023-08-06T07:19:23;2.70;;;2.13;;
79243;SDS011;68672;42.676;23.356;2023-08-06T07:21:48;3.75;;;2.85;;
79243;SDS011;68672;42.676;23.356;2023-08-06T07:24:14;3.22;;;2.35;;
79243;SDS011;68672;42.676;23.356;2023-08-06T07:26:39;3.88;;;2.67;;
79243;SDS011;68672;42.676;23.356;2023-08-06T07:29:05;3.45;;;2.60;;
79243;SDS011;68672;42.676;23.356;2023-08-06T07:31:46;4.05;;;2.38;;
79243;SDS011;68672;42.676;23.356;2023-08-06T07:34:11;3.35;;;2.35;;
79243;SDS011;68672;42.676;23.356;2023-08-06T07:36:37;3.45;;;2.53;;
79243;SDS011;68672;42.676;23.356;2023-08-06T07:39:02;3.70;;;2.60;;
79243;SDS011;68672;42.676;23.356;2023-08-06T07:41:31;4.35;;;3.00;;
79243;SDS011;68672;42.676;23.356;2023-08-06T07:43:57;3.38;;;2.42;;
79243;SDS011;68672;42.676;23.356;2023-08-06T07:46:25;3.47;;;2.45;;
79243;SDS011;68672;42.676;23.356;2023-08-06T07:48:50;3.03;;;2.30;;
79243;SDS011;68672;42.676;23.356;2023-08-06T07:51:15;3.22;;;2.25;;
79243;SDS011;68672;42.676;23.356;2023-08-06T07:53:41;4.38;;;2.58;;
79243;SDS011;68672;42.676;23.356;2023-08-06T07:56:06;3.63;;;2.92;;
79243;SDS011;68672;42.676;23.356;2023-08-06T07:58:32;3.88;;;2.63;;
79243;SDS011;68672;42.676;23.356;2023-08-06T08:00:57;3.28;;;2.60;;
79243;SDS011;68672;42.676;23.356;2023-08-06T08:03:23;4.88;;;2.50;;
79243;SDS011;68672;42.676;23.356;2023-08-06T08:05:48;2.72;;;2.22;;
79243;SDS011;68672;42.676;23.356;2023-08-06T08:08:13;3.45;;;2.53;;
79243;SDS011;68672;42.676;23.356;2023-08-06T08:10:39;5.72;;;3.00;;
79243;SDS011;68672;42.676;23.356;2023-08-06T08:13:05;2.92;;;2.30;;
79243;SDS011;68672;42.676;23.356;2023-08-06T08:15:35;3.10;;;2.63;;
79243;SDS011;68672;42.676;23.356;2023-08-06T08:18:00;3.53;;;2.53;;
79243;SDS011;68672;42.676;23.356;2023-08-06T08:20:26;5.20;;;3.00;;
79243;SDS011;68672;42.676;23.356;2023-08-06T08:22:56;3.50;;;2.80;;
79243;SDS011;68672;42.676;23.356;2023-08-06T08:25:22;5.03;;;2.55;;
79243;SDS011;68672;42.676;23.356;2023-08-06T08:27:47;3.13;;;2.65;;
79243;SDS011;68672;42.676;23.356;2023-08-06T08:30:13;3.25;;;2.55;;
79243;SDS011;68672;42.676;23.356;2023-08-06T08:32:38;4.10;;;2.78;;
79243;SDS011;68672;42.676;23.356;2023-08-06T08:35:04;3.85;;;2.90;;
79243;SDS011;68672;42.676;23.356;2023-08-06T08:37:29;4.72;;;2.42;;
79243;SDS011;68672;42.676;23.356;2023-08-06T08:39:55;5.78;;;2.83;;
79243;SDS011;68672;42.676;23.356;2023-08-06T08:42:20;4.50;;;2.85;;
79243;SDS011;68672;42.676;23.356;2023-08-06T08:44:46;3.50;;;2.33;;
79243;SDS011;68672;42.676;23.356;2023-08-06T08:47:11;3.58;;;2.50;;
79243;SDS011;68672;42.676;23.356;2023-08-06T08:49:38;4.00;;;2.47;;
79243;SDS011;68672;42.676;23.356;2023-08-06T08:52:04;3.35;;;2.60;;
79243;SDS011;68672;42.676;23.356;2023-08-06T08:54:35;3.55;;;2.47;;
79243;SDS011;68672;42.676;23.356;2023-08-06T08:57:03;3.53;;;2.67;;
79243;SDS011;68672;42.676;23.356;2023-08-06T08:59:29;3.63;;;2.55;;
79243;SDS011;68672;42.676;23.356;2023-08-06T09:01:55;3.38;;;2.72;;
79243;SDS011;68672;42.676;23.356;2023-08-06T09:04:21;4.93;;;3.05;;
79243;SDS011;68672;42.676;23.356;2023-08-06T09:06:50;3.33;;;2.70;;
79243;SDS011;68672;42.676;23.356;2023-08-06T09:09:26;3.58;;;2.63;;
79243;SDS011;68672;42.676;23.356;2023-08-06T09:11:55;4.88;;;2.72;;
79243;SDS011;68672;42.676;23.356;2023-08-06T09:14:27;3.78;;;3.08;;
79243;SDS011;68672;42.676;23.356;2023-08-06T09:16:52;4.90;;;2.78;;
79243;SDS011;68672;42.676;23.356;2023-08-06T09:19:18;6.15;;;3.15;;
79243;SDS011;68672;42.676;23.356;2023-08-06T09:21:44;4.40;;;2.72;;
79243;SDS011;68672;42.676;23.356;2023-08-06T09:24:13;3.78;;;2.83;;
79243;SDS011;68672;42.676;23.356;2023-08-06T09:26:40;3.63;;;2.63;;
79243;SDS011;68672;42.676;23.356;2023-08-06T09:29:07;3.60;;;2.83;;
79243;SDS011;68672;42.676;23.356;2023-08-06T09:31:45;3.58;;;2.85;;
79243;SDS011;68672;42.676;23.356;2023-08-06T09:34:21;3.13;;;2.28;;
79243;SDS011;68672;42.676;23.356;2023-08-06T09:36:50;5.63;;;2.90;;
79243;SDS011;68672;42.676;23.356;2023-08-06T09:39:18;3.78;;;2.70;;
79243;SDS011;68672;42.676;23.356;2023-08-06T09:41:44;3.00;;;2.15;;
79243;SDS011;68672;42.676;23.356;2023-08-06T09:44:19;4.78;;;2.97;;
79243;SDS011;68672;42.676;23.356;2023-08-06T09:46:47;3.42;;;2.70;;
79243;SDS011;68672;42.676;23.356;2023-08-06T09:49:13;3.25;;;2.10;;
79243;SDS011;68672;42.676;23.356;2023-08-06T09:51:39;4.00;;;2.38;;
79243;SDS011;68672;42.676;23.356;2023-08-06T09:54:06;3.47;;;2.15;;
79243;SDS011;68672;42.676;23.356;2023-08-06T09:56:33;3.22;;;2.53;;
79243;SDS011;68672;42.676;23.356;2023-08-06T09:59:04;3.60;;;2.65;;
79243;SDS011;68672;42.676;23.356;2023-08-06T10:01:32;2.83;;;2.17;;
79243;SDS011;68672;42.676;23.356;2023-08-06T10:03:59;3.10;;;1.95;;
79243;SDS011;68672;42.676;23.356;2023-08-06T10:06:29;2.53;;;1.83;;
79243;SDS011;68672;42.676;23.356;2023-08-06T10:08:55;2.97;;;2.20;;
79243;SDS011;68672;42.676;23.356;2023-08-06T10:11:21;2.97;;;2.03;;
79243;SDS011;68672;42.676;23.356;2023-08-06T10:13:53;2.60;;;2.00;;
79243;SDS011;68672;42.676;23.356;2023-08-06T10:16:23;3.30;;;2.03;;
79243;SDS011;68672;42.676;23.356;2023-08-06T10:18:49;3.80;;;2.00;;
79243;SDS011;68672;42.676;23.356;2023-08-06T10:21:16;4.70;;;2.28;;
79243;SDS011;68672;42.676;23.356;2023-08-06T10:23:41;3.10;;;2.00;;
79243;SDS011;68672;42.676;23.356;2023-08-06T10:26:07;2.55;;;2.10;;
79243;SDS011;68672;42.676;23.356;2023-08-06T10:28:36;4.22;;;2.15;;
79243;SDS011;68672;42.676;23.356;2023-08-06T10:31:03;2.70;;;1.98;;
79243;SDS011;68672;42.676;23.356;2023-08-06T10:33:44;3.42;;;2.50;;
79243;SDS011;68672;42.676;23.356;2023-08-06T10:36:13;2.78;;;2.00;;
79243;SDS011;68672;42.676;23.356;2023-08-06T10:38:46;2.55;;;2.08;;
79243;SDS011;68672;42.676;23.356;2023-08-06T10:41:17;5.05;;;2.30;;
79243;SDS011;68672;42.676;23.356;2023-08-06T10:46:26;4.05;;;2.33;;
79243;SDS011;68672;42.676;23.356;2023-08-06T10:48:52;3.65;;;2.53;;
79243;SDS011;68672;42.676;23.356;2023-08-06T10:51:18;3.50;;;2.70;;
79243;SDS011;68672;42.676;23.356;2023-08-06T10:53:48;3.60;;;2.13;;
79243;SDS011;68672;42.676;23.356;2023-08-06T10:58:43;4.05;;;2.47;;
79243;SDS011;68672;42.676;23.356;2023-08-06T11:01:10;3.13;;;2.42;;
79243;SDS011;68672;42.676;23.356;2023-08-06T11:03:36;3.30;;;2.40;;
79243;SDS011;68672;42.676;23.356;2023-08-06T11:06:03;3.40;;;2.40;;
79243;SDS011;68672;42.676;23.356;2023-08-06T11:08:32;4.35;;;2.30;;
79243;SDS011;68672;42.676;23.356;2023-08-06T11:11:12;3.47;;;2.38;;
79243;SDS011;68672;42.676;23.356;2023-08-06T11:13:39;3.40;;;2.35;;
79243;SDS011;68672;42.676;23.356;2023-08-06T11:16:05;3.13;;;2.25;;
79243;SDS011;68672;42.676;23.356;2023-08-06T11:18:32;4.38;;;2.38;;
79243;SDS011;68672;42.676;23.356;2023-08-06T11:21:01;3.28;;;2.50;;
79243;SDS011;68672;42.676;23.356;2023-08-06T11:23:28;4.05;;;2.88;;
79243;SDS011;68672;42.676;23.356;2023-08-06T11:25:54;3.65;;;2.95;;
79243;SDS011;68672;42.676;23.356;2023-08-06T11:28:20;5.18;;;2.70;;
79243;SDS011;68672;42.676;23.356;2023-08-06T11:30:48;3.30;;;2.63;;
79243;SDS011;68672;42.676;23.356;2023-08-06T11:33:17;3.63;;;2.42;;
79243;SDS011;68672;42.676;23.356;2023-08-06T11:35:46;3.10;;;2.55;;
79243;SDS011;68672;42.676;23.356;2023-08-06T11:38:13;3.75;;;2.97;;
79243;SDS011;68672;42.676;23.356;2023-08-06T11:40:38;3.78;;;2.55;;
79243;SDS011;68672;42.676;23.356;2023-08-06T11:43:05;3.45;;;2.72;;
79243;SDS011;68672;42.676;23.356;2023-08-06T11:45:31;3.50;;;2.75;;
79243;SDS011;68672;42.676;23.356;2023-08-06T11:47:56;4.00;;;2.72;;
79243;SDS011;68672;42.676;23.356;2023-08-06T11:50:24;5.20;;;3.90;;
79243;SDS011;68672;42.676;23.356;2023-08-06T11:55:27;6.88;;;4.60;;
79243;SDS011;68672;42.676;23.356;2023-08-06T11:57:53;5.57;;;3.50;;
79243;SDS011;68672;42.676;23.356;2023-08-06T12:00:23;3.72;;;3.17;;
79243;SDS011;68672;42.676;23.356;2023-08-06T12:02:49;4.05;;;3.17;;
79243;SDS011;68672;42.676;23.356;2023-08-06T12:05:19;12.85;;;3.03;;
79243;SDS011;68672;42.676;23.356;2023-08-06T12:07:50;4.80;;;3.03;;
79243;SDS011;68672;42.676;23.356;2023-08-06T12:10:21;3.35;;;2.72;;
79243;SDS011;68672;42.676;23.356;2023-08-06T12:12:53;6.43;;;3.17;;
79243;SDS011;68672;42.676;23.356;2023-08-06T12:15:19;3.92;;;3.03;;
79243;SDS011;68672;42.676;23.356;2023-08-06T12:17:45;5.28;;;3.35;;
79243;SDS011;68672;42.676;23.356;2023-08-06T12:20:11;4.13;;;3.05;;
79243;SDS011;68672;42.676;23.356;2023-08-06T12:22:37;5.88;;;4.03;;
79243;SDS011;68672;42.676;23.356;2023-08-06T12:25:05;4.85;;;3.55;;
79243;SDS011;68672;42.676;23.356;2023-08-06T12:27:35;5.82;;;3.75;;
79243;SDS011;68672;42.676;23.356;2023-08-06T12:30:02;4.43;;;3.38;;
79243;SDS011;68672;42.676;23.356;2023-08-06T12:32:28;4.30;;;3.90;;
79243;SDS011;68672;42.676;23.356;2023-08-06T12:34:54;5.32;;;3.90;;
79243;SDS011;68672;42.676;23.356;2023-08-06T12:37:19;4.60;;;3.75;;
79243;SDS011;68672;42.676;23.356;2023-08-06T12:39:45;5.28;;;4.18;;
79243;SDS011;68672;42.676;23.356;2023-08-06T12:42:10;4.13;;;3.60;;
79243;SDS011;68672;42.676;23.356;2023-08-06T12:44:36;6.13;;;3.63;;
79243;SDS011;68672;42.676;23.356;2023-08-06T12:47:04;5.47;;;3.88;;
79243;SDS011;68672;42.676;23.356;2023-08-06T12:49:29;5.15;;;3.70;;
79243;SDS011;68672;42.676;23.356;2023-08-06T12:51:56;4.80;;;4.07;;
79243;SDS011;68672;42.676;23.356;2023-08-06T12:54:26;4.07;;;3.53;;
79243;SDS011;68672;42.676;23.356;2023-08-06T12:56:53;4.00;;;3.60;;
79243;SDS011;68672;42.676;23.356;2023-08-06T12:59:18;4.68;;;3.85;;
79243;SDS011;68672;42.676;23.356;2023-08-06T13:01:44;6.95;;;3.67;;
79243;SDS011;68672;42.676;23.356;2023-08-06T13:04:10;3.83;;;3.42;;
79243;SDS011;68672;42.676;23.356;2023-08-06T13:06:36;4.57;;;3.63;;
79243;SDS011;68672;42.676;23.356;2023-08-06T13:09:02;6.13;;;5.15;;
79243;SDS011;68672;42.676;23.356;2023-08-06T13:11:29;4.47;;;3.42;;
79243;SDS011;68672;42.676;23.356;2023-08-06T13:13:56;5.20;;;4.28;;
79243;SDS011;68672;42.676;23.356;2023-08-06T13:16:24;5.63;;;3.47;;
79243;SDS011;68672;42.676;23.356;2023-08-06T13:18:49;5.70;;;4.18;;
79243;SDS011;68672;42.676;23.356;2023-08-06T13:21:15;4.07;;;3.67;;
79243;SDS011;68672;42.676;23.356;2023-08-06T13:23:40;4.90;;;4.32;;
79243;SDS011;68672;42.676;23.356;2023-08-06T13:26:06;6.75;;;3.65;;
79243;SDS011;68672;42.676;23.356;2023-08-06T13:28:31;5.45;;;3.55;;
79243;SDS011;68672;42.676;23.356;2023-08-06T13:30:57;4.78;;;4.18;;
79243;SDS011;68672;42.676;23.356;2023-08-06T13:33:25;5.45;;;3.67;;
79243;SDS011;68672;42.676;23.356;2023-08-06T13:35:56;5.32;;;3.67;;
79243;SDS011;68672;42.676;23.356;2023-08-06T13:38:22;5.43;;;3.90;;
79243;SDS011;68672;42.676;23.356;2023-08-06T13:40:47;5.10;;;3.60;;
79243;SDS011;68672;42.676;23.356;2023-08-06T13:43:13;6.63;;;3.97;;
79243;SDS011;68672;42.676;23.356;2023-08-06T13:45:38;5.32;;;4.22;;
79243;SDS011;68672;42.676;23.356;2023-08-06T13:48:04;4.95;;;3.70;;
79243;SDS011;68672;42.676;23.356;2023-08-06T13:50:29;4.18;;;3.50;;
79243;SDS011;68672;42.676;23.356;2023-08-06T13:52:55;6.32;;;3.50;;
79243;SDS011;68672;42.676;23.356;2023-08-06T13:55:21;9.40;;;4.13;;
79243;SDS011;68672;42.676;23.356;2023-08-06T13:57:56;5.07;;;3.42;;
79243;SDS011;68672;42.676;23.356;2023-08-06T14:00:21;5.43;;;4.07;;
79243;SDS011;68672;42.676;23.356;2023-08-06T14:02:49;5.30;;;3.15;;
79243;SDS011;68672;42.676;23.356;2023-08-06T14:05:15;5.20;;;3.75;;
79243;SDS011;68672;42.676;23.356;2023-08-06T14:07:40;5.72;;;3.95;;
79243;SDS011;68672;42.676;23.356;2023-08-06T14:10:06;5.28;;;3.53;;
79243;SDS011;68672;42.676;23.356;2023-08-06T14:12:34;5.40;;;3.55;;
79243;SDS011;68672;42.676;23.356;2023-08-06T14:14:59;5.75;;;3.72;;
79243;SDS011;68672;42.676;23.356;2023-08-06T14:17:25;4.50;;;3.47;;
79243;SDS011;68672;42.676;23.356;2023-08-06T14:19:53;4.40;;;3.78;;
79243;SDS011;68672;42.676;23.356;2023-08-06T14:22:19;4.97;;;3.90;;
79243;SDS011;68672;42.676;23.356;2023-08-06T14:24:44;8.25;;;3.97;;
79243;SDS011;68672;42.676;23.356;2023-08-06T14:27:12;4.03;;;3.63;;
79243;SDS011;68672;42.676;23.356;2023-08-06T14:29:37;5.22;;;3.80;;
79243;SDS011;68672;42.676;23.356;2023-08-06T14:32:03;5.10;;;3.90;;
79243;SDS011;68672;42.676;23.356;2023-08-06T14:34:28;5.30;;;3.72;;
79243;SDS011;68672;42.676;23.356;2023-08-06T14:36:54;4.07;;;3.65;;
79243;SDS011;68672;42.676;23.356;2023-08-06T14:39:24;4.32;;;3.22;;
79243;SDS011;68672;42.676;23.356;2023-08-06T14:41:49;4.38;;;3.25;;
79243;SDS011;68672;42.676;23.356;2023-08-06T14:44:15;4.53;;;3.75;;
79243;SDS011;68672;42.676;23.356;2023-08-06T14:46:44;4.53;;;3.47;;